Skip to main content.
Our real time weather data display below is updated continuously via our 24/7 live data feed.
 TIME   TEMPERATURE   WINDSPEED   DIRECTION   HUMIDITY   BAROMETER   RAINFALL 
19:20 24.0°C (75.2°F) 11.1 kmh (6.9 mph) SSW 73% 1014.9hPa (29.97 inHg) 0.0mm (0.00 in.)
18:20 26.0°C (78.8 °F) 13.0 kmh (8.1 mph) SSW 54% 1015.9hPa (30.00 inHg) 0.0mm (0.00 in.)
17:20 28.0°C (82.4 °F) 18.5 kmh (11.5 mph) S 45% 1015.9hPa (30.00 inHg) 0.0mm (0.00 in.)
16:12 28.0°C (82.4 °F) 16.7 kmh (10.4 mph) NE 45% 1016.9hPa (30.03 inHg) 0.0mm (0.00 in.)
15:12 27.0°C (80.6 °F) 11.1 kmh (6.9 mph) NNE 50% 1016.9hPa (30.03 inHg) 0.0mm (0.00 in.)
14:12 26.0°C (78.8 °F) 14.8 kmh (9.2 mph) NE 61% 1016.9hPa (30.03 inHg) 0.0mm (0.00 in.)
13:12 26.0°C (78.8 °F) 16.7 kmh (10.4 mph) NNE 61% 1016.9hPa (30.03 inHg) 0.0mm (0.00 in.)
12:12 27.0°C (80.6 °F) 22.2 kmh (13.8 mph) NE 61% 1016.9hPa (30.03 inHg) 0.0mm (0.00 in.)
11:12 28.0°C (82.4 °F) 11.1 kmh (6.9 mph) N 51% 1016.9hPa (30.03 inHg) 0.0mm (0.00 in.)
10:12 27.0°C (80.6 °F) 11.1 kmh (6.9 mph) WNW 61% 1016.9hPa (30.03 inHg) 0.0mm (0.00 in.)
9:12 25.0°C (77.0 °F) 14.8 kmh (9.2 mph) WNW 69% 1016.9hPa (30.03 inHg) 0.0mm (0.00 in.)
8:12 23.0°C (73.4 °F) 13.0 kmh (8.1 mph) WNW 78% 1016.9hPa (30.03 inHg) 0.0mm (0.00 in.)
7:12 21.0°C (69.8 °F) 5.6 kmh (3.5 mph) W 77% 1016.9hPa (30.03 inHg) 0.0mm (0.00 in.)
6:12 20.0°C (68.0 °F) 11.1 kmh (6.9 mph) W 64% 1015.9hPa (30.00 inHg) 0.0mm (0.00 in.)
5:12 20.0°C (68.0 °F) 5.6 kmh (3.5 mph) SW 72% 1015.9hPa (30.00 inHg) 0.0mm (0.00 in.)
4:12 20.0°C (68.0 °F) 5.6 kmh (3.5 mph) WSW 72% 1016.9hPa (30.03 inHg) 0.0mm (0.00 in.)
3:12 21.0°C (69.8 °F) 5.6 kmh (3.5 mph) WSW 56% 1016.9hPa (30.03 inHg) 0.0mm (0.00 in.)
2:12 22.0°C (71.6 °F) 5.6 kmh (3.5 mph) W 53% 1017.9hPa (30.06 inHg) 0.0mm (0.00 in.)
1:12 21.0°C (69.8 °F) 5.6 kmh (3.5 mph) WSW 52% 1017.9hPa (30.06 inHg) 0.0mm (0.00 in.)
0:12 21.0°C (69.8 °F) 5.6 kmh (3.5 mph) WNW 73% 1017.9hPa (30.06 inHg) 0.0mm (0.00 in.)
23:12 21.0°C (69.8 °F) 5.6 kmh (3.5 mph) NW 88% 1019.0hPa (30.09 inHg) 0.0mm (0.00 in.)
22:12 22.0°C (71.6 °F) 14.8 kmh (9.2 mph) NW 83% 1017.9hPa (30.06 inHg) 0.0mm (0.00 in.)
21:12 23.0°C (73.4 °F) 9.3 kmh (5.8 mph) WNW 73% 1017.9hPa (30.06 inHg) 0.0mm (0.00 in.)
20:12 24.0°C (75.2 °F) 13.0 kmh (8.1 mph) WNW 73% 1017.9hPa (30.06 inHg) 0.0mm (0.00 in.)